createdAt,value
2018-05-26T00:00:45.637Z,17.6
2018-05-26T00:06:40.616Z,19.71
2018-05-26T00:12:35.613Z,20.12
2018-05-26T00:18:30.615Z,19.53
2018-05-26T00:24:25.601Z,16.31
2018-05-26T00:30:20.594Z,17.13
2018-05-26T00:36:15.629Z,15.49
2018-05-26T00:42:10.627Z,17.3
2018-05-26T00:48:05.653Z,15.37
2018-05-26T00:54:00.648Z,15.06
2018-05-26T00:59:55.624Z,15.97
2018-05-26T01:05:50.645Z,14.47
2018-05-26T01:11:45.640Z,19.44
2018-05-26T01:17:40.616Z,23.43
2018-05-26T01:23:35.663Z,25.43
2018-05-26T01:29:30.676Z,27.51
2018-05-26T01:35:25.633Z,16.52
2018-05-26T01:41:20.631Z,19.82
2018-05-26T01:47:15.628Z,16.7
2018-05-26T01:53:10.621Z,19.4
2018-05-26T01:59:05.652Z,17.53
2018-05-26T02:05:00.667Z,17.16
2018-05-26T02:10:55.654Z,19.09
2018-05-26T02:16:50.690Z,15.89
2018-05-26T02:22:45.662Z,14.9
2018-05-26T02:28:40.645Z,15.79
2018-05-26T02:34:35.727Z,16.56
2018-05-26T02:40:30.636Z,22.68
2018-05-26T02:46:25.650Z,16.11
2018-05-26T02:52:20.675Z,14
2018-05-26T02:58:15.646Z,13.74
2018-05-26T03:04:10.668Z,12.23
2018-05-26T03:10:05.648Z,13.37
2018-05-26T03:16:00.646Z,15.46
2018-05-26T03:21:55.642Z,15.83
2018-05-26T03:27:50.671Z,16.77
2018-05-26T03:33:45.650Z,14.58
2018-05-26T03:39:40.639Z,14.51
2018-05-26T03:45:35.641Z,15.11
2018-05-26T03:51:30.654Z,16.98
2018-05-26T03:57:25.667Z,16.68
2018-05-26T04:03:20.654Z,13.27
2018-05-26T04:09:15.624Z,16.4
2018-05-26T04:15:10.649Z,16.7
2018-05-26T04:21:05.626Z,16.99
2018-05-26T04:27:00.693Z,21.47
2018-05-26T04:32:55.697Z,16.57
2018-05-26T04:38:50.622Z,16.71
2018-05-26T04:44:45.689Z,19.83
2018-05-26T04:50:40.662Z,17.34
2018-05-26T04:56:35.668Z,23.12
2018-05-26T05:02:30.662Z,26.79
2018-05-26T05:08:25.652Z,24.07
2018-05-26T05:14:20.636Z,22.38
2018-05-26T05:20:15.662Z,21.52
2018-05-26T05:26:10.638Z,25.96
2018-05-26T05:32:05.643Z,25.02
2018-05-26T05:38:00.637Z,24.28
2018-05-26T05:43:55.689Z,25.21
2018-05-26T05:49:50.713Z,26.91
2018-05-26T05:55:45.642Z,28.68
2018-05-26T06:01:40.660Z,27.52
2018-05-26T06:07:35.615Z,25.34
2018-05-26T06:13:30.683Z,26.96
2018-05-26T06:19:25.651Z,33.24
2018-05-26T06:25:20.698Z,31.59
2018-05-26T06:31:15.670Z,37.98
2018-05-26T06:37:10.658Z,34.34
2018-05-26T06:43:05.678Z,36.07
2018-05-26T06:49:00.674Z,38.31
2018-05-26T06:54:55.655Z,39.84
2018-05-26T07:00:50.681Z,43.78
2018-05-26T07:06:45.638Z,46.8
2018-05-26T07:12:40.654Z,39.72
2018-05-26T07:18:35.675Z,36.55
2018-05-26T07:24:30.675Z,36.77
2018-05-26T07:30:25.638Z,39.01
2018-05-26T07:36:20.673Z,30.5
2018-05-26T07:42:15.672Z,32.23
2018-05-26T07:48:10.649Z,29.51
2018-05-26T07:54:05.685Z,31.17
2018-05-26T08:00:00.655Z,34.23
2018-05-26T08:05:55.670Z,31.51
2018-05-26T08:11:50.645Z,30.67
2018-05-26T08:17:45.696Z,34.69
2018-05-26T08:23:40.668Z,34.35
2018-05-26T08:29:35.711Z,31.83
2018-05-26T08:35:30.707Z,29.69
2018-05-26T08:41:26.900Z,26.2
2018-05-26T08:47:20.688Z,27.24
2018-05-26T08:53:15.670Z,25.56
2018-05-26T08:59:10.720Z,24.76
2018-05-26T09:05:05.682Z,26.3
2018-05-26T09:11:00.727Z,25.54
2018-05-26T09:16:55.720Z,24.34
2018-05-26T09:22:50.736Z,27.38
2018-05-26T09:28:45.752Z,22.63
2018-05-26T09:34:40.681Z,23.08
2018-05-26T09:40:35.773Z,23.67
2018-05-26T09:46:30.699Z,20.16
2018-05-26T09:52:25.713Z,19.82
2018-05-26T09:58:20.727Z,17.54
2018-05-26T10:04:15.717Z,26.36
2018-05-26T10:10:10.733Z,21.9
2018-05-26T10:16:05.693Z,17.86
2018-05-26T10:22:00.713Z,16.4
2018-05-26T10:27:55.706Z,19.02
2018-05-26T10:33:50.728Z,16.83
2018-05-26T10:39:45.706Z,19.2
2018-05-26T10:45:40.821Z,12.43
2018-05-26T10:51:35.760Z,9.87
2018-05-26T10:57:30.736Z,9.1
2018-05-26T11:03:25.761Z,16.07
2018-05-26T11:09:20.736Z,10.64
2018-05-26T11:15:15.760Z,8.36
2018-05-26T11:21:10.740Z,12.98
2018-05-26T11:27:05.794Z,14.48
2018-05-26T11:33:00.723Z,8.14
2018-05-26T11:38:55.773Z,11.22
2018-05-26T11:44:50.737Z,10.73
2018-05-26T11:50:45.793Z,12.84
2018-05-26T11:56:40.759Z,10.14
2018-05-26T12:02:35.758Z,11.48
2018-05-26T12:08:30.779Z,10.02
2018-05-26T12:14:25.781Z,9.88
2018-05-26T12:20:20.823Z,11.64
2018-05-26T12:26:15.812Z,10.12
2018-05-26T12:32:10.788Z,14.85
2018-05-26T12:38:05.779Z,12.15
2018-05-26T12:44:00.767Z,9.82
2018-05-26T12:49:55.894Z,7.8
2018-05-26T12:55:50.816Z,8.17
2018-05-26T13:01:45.804Z,8.32
2018-05-26T13:07:40.828Z,13.79
2018-05-26T13:13:35.795Z,9.07
2018-05-26T13:19:30.803Z,9.23
2018-05-26T13:25:25.808Z,15.02
2018-05-26T13:31:20.808Z,9.98
2018-05-26T13:37:15.886Z,12.03
2018-05-26T13:43:10.791Z,8.76
2018-05-26T13:49:05.793Z,10.18
2018-05-26T13:55:00.955Z,9.41
2018-05-26T14:00:55.873Z,11.41
2018-05-26T14:06:50.818Z,8.99
2018-05-26T14:12:45.866Z,8.88
2018-05-26T14:18:40.839Z,17.8
2018-05-26T14:24:35.838Z,8.57
2018-05-26T14:30:30.820Z,6.07
2018-05-26T14:36:25.949Z,9.13
2018-05-26T14:42:20.859Z,8.09
2018-05-26T14:48:15.836Z,10.33
2018-05-26T14:54:10.809Z,7.58
2018-05-26T15:00:05.842Z,7.48
2018-05-26T15:06:00.933Z,8.93
2018-05-26T15:11:55.887Z,7.31
2018-05-26T15:17:50.883Z,8.19
2018-05-26T15:23:45.888Z,9.67
2018-05-26T15:29:40.878Z,7.32
2018-05-26T15:35:35.901Z,5.99
2018-05-26T15:41:30.840Z,9.63
2018-05-26T15:47:25.886Z,6.78
2018-05-26T15:53:20.976Z,6.67
2018-05-26T15:59:15.842Z,7.97
2018-05-26T16:05:10.932Z,9.33
2018-05-26T16:11:05.926Z,10.69
2018-05-26T16:17:00.888Z,7.62
2018-05-26T16:22:55.866Z,8.62
2018-05-26T16:28:50.877Z,9.02
2018-05-26T16:34:45.954Z,12.94
2018-05-26T16:40:40.918Z,12.84
2018-05-26T16:46:35.961Z,19.22
2018-05-26T16:52:30.898Z,15.07
2018-05-26T16:58:25.905Z,14.23
2018-05-26T17:04:20.940Z,11
2018-05-26T17:10:15.909Z,51.88
2018-05-26T17:16:10.921Z,8.78
2018-05-26T17:22:05.896Z,7.69
2018-05-26T17:28:00.905Z,9.61
2018-05-26T17:33:55.894Z,8.65
2018-05-26T17:39:50.924Z,9.04
2018-05-26T17:45:45.940Z,12.72
2018-05-26T17:51:40.943Z,8.4
2018-05-26T17:57:35.898Z,10.04
2018-05-26T18:03:30.907Z,11.61
2018-05-26T18:09:25.927Z,20.1
2018-05-26T18:15:20.920Z,12.26
2018-05-26T18:21:15.966Z,16.29
2018-05-26T18:27:10.940Z,8.47
2018-05-26T18:33:05.908Z,9.55
2018-05-26T18:39:00.923Z,10.32
2018-05-26T18:44:55.963Z,7.93
2018-05-26T18:50:50.961Z,8.44
2018-05-26T18:56:45.980Z,14.53
2018-05-26T19:02:40.939Z,13.08
2018-05-26T19:08:35.975Z,12.77
2018-05-26T19:14:30.962Z,14.01
2018-05-26T19:20:25.959Z,10.37
2018-05-26T19:26:20.949Z,10.05
2018-05-26T19:32:16.002Z,9.7
2018-05-26T19:38:11.002Z,11.13
2018-05-26T19:44:06.041Z,12.38
2018-05-26T19:50:00.967Z,10.67
2018-05-26T19:55:55.982Z,8.2
2018-05-26T20:01:50.965Z,10.02
2018-05-26T20:07:45.964Z,8.23
2018-05-26T20:13:40.956Z,12.98
2018-05-26T20:19:36.043Z,14.82
2018-05-26T20:25:31.055Z,11.08
2018-05-26T20:31:25.955Z,9.04
2018-05-26T20:37:21.025Z,15.21
2018-05-26T20:43:16.012Z,13.11
2018-05-26T20:49:10.959Z,13.83
2018-05-26T20:55:06.009Z,10.77
2018-05-26T21:01:00.979Z,9
2018-05-26T21:06:56.043Z,11.18
2018-05-26T21:12:51.030Z,10.28
2018-05-26T21:18:46.054Z,12.31
2018-05-26T21:24:41.061Z,19.49
2018-05-26T21:30:36.014Z,12.36
2018-05-26T21:36:31.013Z,14.04
2018-05-26T21:42:26.016Z,12.59
2018-05-26T21:48:21.012Z,15.07
2018-05-26T21:54:16.017Z,14.02
2018-05-26T22:00:11.234Z,12.9
2018-05-26T22:06:06.030Z,9.81
2018-05-26T22:12:01.071Z,11.78
2018-05-26T22:17:56.030Z,11.3
2018-05-26T22:23:51.082Z,11.81
2018-05-26T22:29:46.042Z,10.44
2018-05-26T22:35:41.033Z,9.08
2018-05-26T22:41:36.031Z,11.83
2018-05-26T22:47:31.053Z,14.77
2018-05-26T22:53:26.061Z,12.23
2018-05-26T22:59:21.072Z,11.13
2018-05-26T23:05:16.015Z,11.91
2018-05-26T23:11:11.060Z,9.25
2018-05-26T23:17:06.069Z,12.45
2018-05-26T23:23:01.039Z,11.51
2018-05-26T23:28:56.104Z,24.46
2018-05-26T23:34:51.052Z,12.89
2018-05-26T23:40:46.046Z,10.61
2018-05-26T23:46:41.065Z,18.72
2018-05-26T23:52:36.067Z,15.4
2018-05-26T23:58:31.040Z,12.8
